Latest Weather Observations for McArthur River Mine

IDD60801

Issued at 9:01 am CST Tuesday 17 October 2017 (issued every 30 minutes, with the page automatically refreshed every 10 minutes)

About weather observations | Map of weather stations | Latest weather observations for NT | Other Formats
Station Details ID: 014704 Name: MCARTHUR RIVER MINE AIRPORT Lat: -16.44 Lon: 136.08 Height: 40.0 m
Data from the previous 72 hours. | See also: Recent months at McArthur River Mine
Date/Time
CST
Temp
°C
App
Temp
°C
Dew
Point
°C
Rel
Hum
%
Delta-T
°C
Wind Press
QNH
hPa
Press
MSL
hPa
Rain since
9am
mm
Dir  Spd
km/h
Gust
km/h
Spd
kts
Gust
kts
17/09:00am 29.7 32.2 21.1 60 5.8 E 9 15 5 8 1010.4 1010.1 0.0
17/08:30am 28.8 31.4 20.5 61 5.5 ENE 7 13 4 7 1010.3 1010.0 0.0
17/08:00am 27.7 29.3 19.2 60 5.5 E 9 15 5 8 1009.9 1009.6 0.0
17/07:30am 26.5 28.2 18.6 62 5.1 ESE 7 9 4 5 1009.7 1009.4 0.0
17/07:00am 24.4 27.6 18.8 71 3.6 CALM 0 0 0 0 1009.1 1008.8 0.0
17/06:30am 22.7 25.1 18.7 78 2.5 ESE 4 7 2 4 1008.6 1008.3 0.0
17/06:00am 22.3 24.4 18.9 81 2.2 WSW 6 9 3 5 1008.2 1007.9 0.0
17/05:30am 22.7 24.8 18.9 79 2.4 WSW 6 7 3 4 1008.0 1007.7 0.0
17/05:00am 22.8 24.2 18.6 77 2.6 WSW 9 11 5 6 1007.7 1007.4 0.0
17/04:30am 23.6 25.3 18.0 71 3.5 WSW 6 11 3 6 1007.2 1006.9 0.0
17/04:00am 24.2 26.0 18.2 69 3.8 N 6 7 3 4 1006.8 1006.5 0.0
17/03:30am 24.6 26.2 18.3 68 4.0 SW 7 11 4 6 1007.3 1007.0 0.0
17/03:00am 24.9 26.4 18.1 66 4.3 N 7 11 4 6 1007.0 1006.7 0.0
17/02:30am 24.8 27.2 18.0 66 4.3 NW 2 7 1 4 1007.5 1007.2 0.0
17/02:00am 25.0 26.5 18.0 65 4.4 E 7 13 4 7 1007.7 1007.4 0.0
17/01:30am 25.3 26.4 18.0 64 4.6 ESE 9 17 5 9 1008.2 1007.9 0.0
17/01:00am 25.2 26.0 18.2 65 4.4 ENE 11 15 6 8 1008.3 1008.0 0.0
17/12:30am 25.2 26.9 18.6 67 4.2 ENE 7 9 4 5 1008.6 1008.3 0.0
17/12:00am 25.6 27.4 18.8 66 4.3 ENE 7 11 4 6 1008.7 1008.4 0.0
 
Date/Time
CST
Temp
°C
App
Temp
°C
Dew
Point
°C
Rel
Hum
%
Delta-T
°C
Wind Press
QNH
hPa
Press
MSL
hPa
Rain since
9am
mm
Dir  Spd
km/h
Gust
km/h
Spd
kts
Gust
kts
16/11:30pm 26.1 27.7 19.2 65 4.4 E 9 15 5 8 1009.0 1008.7 0.0
16/11:00pm 26.3 28.0 19.4 66 4.5 ENE 9 13 5 7 1009.3 1009.0 0.0
16/10:30pm 26.7 28.6 19.8 66 4.5 NE 9 15 5 8 1008.8 1008.5 0.0
16/10:00pm 27.0 28.8 19.6 64 4.8 ENE 9 15 5 8 1008.8 1008.5 0.0
16/09:30pm 27.5 28.7 18.2 57 5.9 ENE 9 17 5 9 1008.9 1008.6 0.0
16/09:00pm 27.5 28.8 20.1 64 4.9 ENE 13 17 7 9 1008.5 1008.2 0.0
16/08:30pm 27.7 28.4 20.5 65 4.8 E 17 24 9 13 1008.2 1007.9 0.0
16/08:00pm 27.9 28.5 20.2 63 5.1 E 17 22 9 12 1007.6 1007.3 0.0
16/07:30pm 28.1 29.2 19.6 60 5.5 E 13 20 7 11 1006.8 1006.5 0.0
16/07:00pm 28.2 28.7 19.2 58 5.8 E 15 30 8 16 1006.6 1006.3 0.0
16/06:30pm 29.4 28.8 18.8 53 6.9 E 20 35 11 19 1006.0 1005.7 0.0
16/06:00pm 29.5 29.0 18.6 52 7.0 NE 19 32 10 17 1005.2 1004.9 0.0
16/05:30pm 30.1 29.5 18.8 50 7.3 ENE 20 33 11 18 1004.8 1004.5 0.0
16/05:00pm 31.2 29.8 17.9 45 8.5 ENE 22 35 12 19 1003.9 1003.6 0.0
16/04:30pm 31.2 30.4 18.5 46 8.2 ENE 20 33 11 18 1003.6 1003.3 0.0
16/04:00pm 33.4 31.5 16.7 36 10.6 ENE 22 37 12 20 1003.7 1003.4 0.0
16/03:30pm 35.0 33.3 15.8 31 12.1 NE 19 28 10 15 1003.2 1002.9 0.0
16/03:00pm 36.1 34.2 15.8 30 12.9 NE 20 35 11 19 1003.0 1002.7 0.0
16/02:30pm 38.7 36.9 10.9 19 16.6 W 11 20 6 11 1002.8 1002.5 0.0
16/02:00pm 38.0 36.7 11.1 20 16.0 WNW 9 17 5 9 1003.0 1002.7 0.0
16/01:30pm 37.5 35.7 12.2 22 15.3 SW 13 20 7 11 1003.6 1003.3 0.0
16/01:00pm 37.9 37.2 13.2 23 15.2 NNE 9 20 5 11 1004.4 1004.1 0.0
16/12:30pm 38.2 37.8 15.3 25 14.5 WSW 11 20 6 11 1005.3 1005.0 0.0
16/12:00pm 37.8 38.0 16.7 29 13.6 NNE 11 20 6 11 1005.9 1005.6 0.0
16/11:30am 36.1 36.5 17.3 33 12.2 ENE 11 20 6 11 1006.5 1006.2 0.0
16/11:00am 36.1 36.3 17.7 33 12.0 ENE 13 26 7 14 1007.2 1006.9 0.0
16/10:30am 35.6 37.4 18.7 37 11.1 NE 7 13 4 7 1007.7 1007.4 0.0
16/10:00am 33.6 35.7 19.3 43 9.4 NNW 7 15 4 8 1008.0 1007.7 0.0
16/09:30am 33.1 35.4 20.6 47 8.4 ENE 9 17 5 9 1008.3 1008.0 0.0
16/09:00am 32.2 35.6 22.0 55 7.0 NNE 7 13 4 7 1008.3 1008.0 0.0
16/08:30am 30.7 34.0 21.8 59 6.0 N 7 13 4 7 1008.5 1008.2 0.0
16/08:00am 29.8 32.5 22.8 66 4.8 N 13 19 7 10 1008.5 1008.2 0.0
16/07:30am 29.2 32.9 23.9 73 3.7 NE 11 19 6 10 1008.2 1007.9 0.0
16/07:00am 27.4 31.5 23.2 78 2.9 NE 7 9 4 5 1007.9 1007.6 0.0
16/06:30am 25.9 29.8 22.6 82 2.2 NE 6 7 3 4 1008.0 1007.7 0.0
16/06:00am 24.9 27.8 20.6 77 2.8 NNE 6 9 3 5 1007.7 1007.4 0.0
16/05:30am 24.2 26.4 19.5 75 3.0 NE 7 13 4 7 1007.2 1006.9 0.0
16/05:00am 23.8 26.5 17.8 69 3.8 CALM 0 4 0 2 1006.6 1006.3 0.0
16/04:30am 24.0 25.7 18.0 69 3.8 SSE 6 7 3 4 1006.4 1006.1 0.0
16/04:00am 24.5 26.3 18.2 68 4.0 WSW 6 7 3 4 1006.2 1005.9 0.0
16/03:30am 25.3 28.2 18.2 64 4.5 CALM 0 0 0 0 1005.8 1005.5 0.0
16/03:00am 26.0 29.0 19.2 66 4.4 N 2 7 1 4 1005.5 1005.2 0.0
16/02:30am 27.0 29.9 19.9 65 4.6 NNE 4 7 2 4 1005.6 1005.3 0.0
16/02:00am 27.2 29.3 19.0 61 5.3 N 6 7 3 4 1005.7 1005.4 0.0
16/01:30am 27.6 29.7 18.9 59 5.6 N 6 7 3 4 1005.9 1005.6 0.0
16/01:00am 28.2 30.1 18.6 56 6.2 N 6 7 3 4 1006.1 1005.8 0.0
16/12:30am 28.6 31.2 18.4 54 6.6 NE 2 6 1 3 1006.4 1006.1 0.0
16/12:00am 29.0 30.3 17.5 49 7.3 NNE 7 13 4 7 1006.6 1006.3 0.0
 
Date/Time
CST
Temp
°C
App
Temp
°C
Dew
Point
°C
Rel
Hum
%
Delta-T
°C
Wind Press
QNH
hPa
Press
MSL
hPa
Rain since
9am
mm
Dir  Spd
km/h
Gust
km/h
Spd
kts
Gust
kts
15/11:30pm 29.0 29.5 16.5 46 7.8 NNE 9 11 5 6 1006.7 1006.4 0.0
15/11:00pm 29.1 29.6 15.6 44 8.3 ENE 7 9 4 5 1006.6 1006.3 0.0
15/10:30pm 29.9 30.3 15.2 41 9.0 NNE 7 9 4 5 1006.5 1006.2 0.0
15/10:00pm 30.9 30.8 14.9 37 9.8 NNE 9 15 5 8 1006.4 1006.1 0.0
15/09:30pm 30.9 30.9 14.1 36 10.2 ENE 7 11 4 6 1006.1 1005.8 0.0
15/09:00pm 31.8 32.3 14.9 36 10.4 N 6 11 3 6 1005.6 1005.3 0.0
15/08:30pm 32.4 32.5 15.4 36 10.6 N 9 15 5 8 1005.2 1004.9 0.0
15/08:00pm 33.3 33.3 15.3 34 11.2 NE 9 15 5 8 1004.8 1004.5 0.0
15/07:30pm 33.0 30.7 2.9 15 15.5 ESE 4 13 2 7 1004.2 1003.9 0.0
15/07:00pm 35.1 32.2 2.6 13 16.8 SW 7 9 4 5 1003.6 1003.3 0.0
15/06:30pm 37.7 34.4 2.2 11 18.5 SW 9 13 5 7 1003.2 1002.9 0.0
15/06:00pm 39.0 34.5 1.9 10 19.4 WSW 15 19 8 10 1002.9 1002.6 0.0
15/05:30pm 39.9 34.5 1.1 9 20.2 SSW 19 24 10 13 1002.6 1002.3 0.0
15/05:00pm 40.4 35.8 1.4 9 20.4 SW 15 28 8 15 1002.4 1002.1 0.0
15/04:30pm 40.8 35.9 1.7 9 20.6 WSW 17 26 9 14 1002.5 1002.2 0.0
15/04:00pm 40.7 37.3 1.7 9 20.5 S 9 15 5 8 1002.5 1002.2 0.0
15/03:30pm 40.8 35.3 1.7 9 20.6 SW 20 32 11 17 1002.8 1002.5 0.0
15/03:00pm 41.1 37.0 2.0 9 20.7 WNW 13 20 7 11 1003.0 1002.7 0.0
15/02:30pm 40.9 36.7 1.8 9 20.7 SW 13 20 7 11 1003.4 1003.1 0.0
15/02:00pm 40.2 36.2 2.8 10 19.9 S 13 28 7 15 1003.8 1003.5 0.0
15/01:30pm 39.5 36.2 2.2 10 19.7 WSW 9 17 5 9 1004.4 1004.1 0.0
15/01:00pm 39.5 35.4 2.2 10 19.6 SSE 13 22 7 12 1005.0 1004.7 0.0
15/12:30pm 38.8 34.5 3.1 11 19.0 SSW 15 22 8 12 1005.7 1005.4 0.0
15/12:00pm 38.6 35.4 2.9 11 18.9 NNW 9 17 5 9 1006.2 1005.9 0.0
15/11:30am 37.9 34.8 3.6 12 18.3 SE 9 17 5 9 1006.9 1006.6 0.0
15/11:00am 37.5 34.6 4.4 13 17.8 E 9 17 5 9 1007.3 1007.0 0.0
15/10:30am 36.1 32.9 3.3 13 17.2 S 9 17 5 9 1007.9 1007.6 0.0
15/10:00am 35.4 31.6 3.9 14 16.6 SSE 13 20 7 11 1008.4 1008.1 0.0
15/09:30am 34.7 31.1 5.2 16 15.9 SSE 13 17 7 9 1008.5 1008.2 0.0
15/09:00am 33.5 29.2 5.1 17 15.1 SSE 17 24 9 13 1008.7 1008.4 0.0
15/08:30am 32.3 27.4 4.2 17 14.7 SSE 19 24 10 13 1008.9 1008.6 0.0
15/08:00am 30.9 28.7 9.2 26 12.2 S 11 20 6 11 1008.7 1008.4 0.0
15/07:30am 27.0 28.8 18.8 60 5.3 WSW 7 11 4 6 1008.3 1008.0 0.0
15/07:00am 24.8 27.4 20.1 75 3.1 SW 6 9 3 5 1007.8 1007.5 0.0
15/06:30am 22.5 25.7 18.9 80 2.3 CALM 0 0 0 0 1007.5 1007.2 0.0
15/06:00am 22.3 25.5 18.9 81 2.2 CALM 0 0 0 0 1007.1 1006.8 0.0
15/05:30am 22.6 24.8 19.2 81 2.2 W 6 7 3 4 1007.1 1006.8 0.0
15/05:00am 22.8 25.4 19.2 80 2.3 WNW 4 7 2 4 1006.9 1006.6 0.0
15/04:30am 23.1 25.4 19.5 80 2.3 W 6 7 3 4 1006.8 1006.5 0.0
15/04:00am 23.4 25.5 18.9 76 2.9 W 6 7 3 4 1006.8 1006.5 0.0
15/03:30am 23.8 26.7 19.1 75 3.0 NW 2 7 1 4 1006.7 1006.4 0.0
15/03:00am 24.8 28.1 19.2 71 3.6 CALM 0 0 0 0 1006.8 1006.5 0.0
15/02:30am 24.8 28.2 19.4 72 3.5 CALM 0 0 0 0 1006.9 1006.6 0.0
15/02:00am 25.2 28.7 19.6 71 3.6 CALM 0 0 0 0 1006.9 1006.6 0.0
15/01:30am 25.3 28.7 19.4 70 3.8 CALM 0 0 0 0 1007.1 1006.8 0.0
15/01:00am 25.9 28.9 19.3 67 4.3 ENE 2 6 1 3 1007.3 1007.0 0.0
15/12:30am 26.9 30.2 19.0 62 5.1 CALM 0 0 0 0 1007.7 1007.4 0.0
15/12:00am 28.0 31.5 20.3 63 5.1 ENE 2 7 1 4 1007.8 1007.5 0.0
 
Date/Time
CST
Temp
°C
App
Temp
°C
Dew
Point
°C
Rel
Hum
%
Delta-T
°C
Wind Press
QNH
hPa
Press
MSL
hPa
Rain since
9am
mm
Dir  Spd
km/h
Gust
km/h
Spd
kts
Gust
kts
14/11:30pm 28.7 31.8 20.2 60 5.6 ENE 4 6 2 3 1008.2 1007.9 0.0
14/11:00pm 29.2 32.2 20.1 58 6.0 NNE 4 7 2 4 1008.5 1008.2 0.0
14/10:30pm 29.5 32.3 20.4 58 6.0 NE 6 7 3 4 1008.6 1008.3 0.0
14/10:00pm 29.9 32.4 19.9 55 6.6 NNE 6 7 3 4 1008.5 1008.2 0.0
14/09:30pm 30.5 32.7 19.5 51 7.2 NNE 7 11 4 6 1008.3 1008.0 0.0
14/09:00pm 31.1 33.1 19.1 48 7.8 NNE 7 11 4 6 1007.9 1007.6 0.0
14/08:30pm 31.5 32.4 18.5 46 8.4 NNE 11 17 6 9 1007.5 1007.2 0.0
14/08:00pm 32.0 33.1 19.6 47 8.2 N 13 19 7 10 1007.2 1006.9 0.0
14/07:30pm 32.7 33.6 19.2 44 8.9 NNE 13 24 7 13 1006.7 1006.4 0.0
14/07:00pm 33.5 33.4 18.8 41 9.6 NNE 17 24 9 13 1006.2 1005.9 0.0
14/06:30pm 34.3 34.4 18.3 38 10.4 NNE 15 20 8 11 1005.5 1005.2 0.0
14/06:00pm 35.2 34.1 17.4 34 11.5 NE 19 28 10 15 1005.1 1004.8 0.0
14/05:30pm 36.8 36.5 17.4 32 12.6 NE 15 22 8 12 1004.8 1004.5 0.0
14/05:00pm 37.4 35.9 15.2 26 14.0 NE 17 26 9 14 1004.6 1004.3 0.0
14/04:30pm 37.8 36.0 15.6 27 14.1 NE 19 28 10 15 1004.7 1004.4 0.0
14/04:00pm 38.5 36.3 14.3 23 15.1 NE 19 28 10 15 1004.7 1004.4 0.0
14/03:30pm 38.9 36.1 13.3 22 15.8 ENE 20 32 11 17 1004.8 1004.5 0.0
14/03:00pm 40.5 37.6 6.7 13 19.1 ENE 11 24 6 13 1005.0 1004.7 0.0
14/02:30pm 39.5 37.5 7.1 14 18.4 SSE 7 20 4 11 1005.4 1005.1 0.0
14/02:00pm 39.2 36.4 6.8 14 18.2 ENE 11 24 6 13 1005.9 1005.6 0.0
14/01:30pm 39.3 35.7 6.9 14 18.3 ESE 15 24 8 13 1006.4 1006.1 0.0
14/01:00pm 39.3 36.1 6.9 14 18.3 SSE 13 26 7 14 1007.1 1006.8 0.0
14/12:30pm 38.4 35.1 6.2 14 17.9 E 13 24 7 13 1007.8 1007.5 0.0
14/12:00pm 38.4 34.7 8.1 16 17.3 ESE 17 26 9 14 1008.4 1008.1 0.0
14/11:30am 39.0 35.4 6.7 14 18.1 SE 15 24 8 13 1008.9 1008.6 0.0
14/11:00am 37.4 33.5 3.2 12 18.0 ESE 13 24 7 13 1009.5 1009.2 0.0
14/10:30am 36.9 32.1 2.8 12 17.9 ESE 17 28 9 15 1009.9 1009.6 0.0
14/10:00am 36.2 31.3 2.3 12 17.5 ESE 17 30 9 16 1010.4 1010.1 0.0
14/09:30am 34.4 28.8 0.9 12 16.8 SSE 20 26 11 14 1010.7 1010.4 0.0

Other Formats:

Comma delimited format used in spreadsheet applications
http://www.bom.gov.au/fwo/IDD60801/IDD60801.94239.axf

JavaScript Object Notation format (JSON) in row-major order
http://www.bom.gov.au/fwo/IDD60801/IDD60801.94239.json